sensor_id;sensor_type;location;lat;lon;timestamp;pressure;altitude;pressure_sealevel;temperature;humidity
4598;BME280;62772;48.646;8.906;2023-10-09T00:03:59;96939.81;;;10.24;100.00
4598;BME280;62772;48.646;8.906;2023-10-09T00:09:06;96941.56;;;10.34;100.00
4598;BME280;62772;48.646;8.906;2023-10-09T00:14:29;96941.13;;;10.08;100.00
4598;BME280;62772;48.646;8.906;2023-10-09T00:19:31;96930.94;;;9.77;100.00
4598;BME280;62772;48.646;8.906;2023-10-09T00:24:32;96923.63;;;9.44;100.00
4598;BME280;62772;48.646;8.906;2023-10-09T00:29:33;96923.13;;;9.42;100.00
4598;BME280;62772;48.646;8.906;2023-10-09T00:34:37;96919.31;;;9.49;100.00
4598;BME280;62772;48.646;8.906;2023-10-09T00:39:39;96913.91;;;9.35;100.00
4598;BME280;62772;48.646;8.906;2023-10-09T00:44:41;96915.22;;;9.37;100.00
4598;BME280;62772;48.646;8.906;2023-10-09T00:49:44;96913.19;;;9.29;100.00
4598;BME280;62772;48.646;8.906;2023-10-09T00:54:45;96910.00;;;9.27;100.00
4598;BME280;62772;48.646;8.906;2023-10-09T00:59:54;96900.66;;;9.68;100.00
4598;BME280;62772;48.646;8.906;2023-10-09T01:04:59;96901.03;;;9.42;100.00
4598;BME280;62772;48.646;8.906;2023-10-09T01:10:00;96895.91;;;9.46;100.00
4598;BME280;62772;48.646;8.906;2023-10-09T01:15:10;96891.72;;;9.58;100.00
4598;BME280;62772;48.646;8.906;2023-10-09T01:20:31;96891.88;;;9.48;100.00
4598;BME280;62772;48.646;8.906;2023-10-09T01:25:41;96889.91;;;9.54;100.00
4598;BME280;62772;48.646;8.906;2023-10-09T01:30:45;96878.75;;;9.52;100.00
4598;BME280;62772;48.646;8.906;2023-10-09T01:35:48;96880.09;;;9.68;100.00
4598;BME280;62772;48.646;8.906;2023-10-09T01:40:51;96878.69;;;9.57;100.00
4598;BME280;62772;48.646;8.906;2023-10-09T01:45:52;96870.47;;;9.53;100.00
4598;BME280;62772;48.646;8.906;2023-10-09T01:50:53;96862.47;;;9.34;100.00
4598;BME280;62772;48.646;8.906;2023-10-09T01:55:54;96863.53;;;9.52;100.00
4598;BME280;62772;48.646;8.906;2023-10-09T02:00:55;96852.28;;;9.55;100.00
4598;BME280;62772;48.646;8.906;2023-10-09T02:05:56;96848.78;;;9.93;100.00
4598;BME280;62772;48.646;8.906;2023-10-09T02:11:19;96852.34;;;9.88;100.00
4598;BME280;62772;48.646;8.906;2023-10-09T02:16:24;96851.28;;;9.51;100.00
4598;BME280;62772;48.646;8.906;2023-10-09T02:21:41;96845.59;;;9.91;100.00
4598;BME280;62772;48.646;8.906;2023-10-09T02:26:42;96843.84;;;10.00;100.00
4598;BME280;62772;48.646;8.906;2023-10-09T02:31:51;96839.63;;;9.99;100.00
4598;BME280;62772;48.646;8.906;2023-10-09T02:36:52;96837.22;;;9.65;100.00
4598;BME280;62772;48.646;8.906;2023-10-09T02:42:06;96836.16;;;9.98;100.00
4598;BME280;62772;48.646;8.906;2023-10-09T02:47:20;96838.13;;;9.93;100.00
4598;BME280;62772;48.646;8.906;2023-10-09T02:52:24;96837.97;;;9.84;100.00
4598;BME280;62772;48.646;8.906;2023-10-09T02:57:28;96838.75;;;9.71;100.00
4598;BME280;62772;48.646;8.906;2023-10-09T03:02:36;96838.63;;;9.95;100.00
4598;BME280;62772;48.646;8.906;2023-10-09T03:07:40;96833.06;;;9.58;100.00
4598;BME280;62772;48.646;8.906;2023-10-09T03:12:40;96828.22;;;9.93;100.00
4598;BME280;62772;48.646;8.906;2023-10-09T03:17:44;96822.13;;;10.07;100.00
4598;BME280;62772;48.646;8.906;2023-10-09T03:22:45;96821.00;;;9.94;100.00
4598;BME280;62772;48.646;8.906;2023-10-09T03:27:47;96824.63;;;9.51;100.00
4598;BME280;62772;48.646;8.906;2023-10-09T03:32:52;96822.75;;;9.71;100.00
4598;BME280;62772;48.646;8.906;2023-10-09T03:37:57;96815.28;;;9.87;100.00
4598;BME280;62772;48.646;8.906;2023-10-09T03:43:00;96812.03;;;9.90;100.00
4598;BME280;62772;48.646;8.906;2023-10-09T03:48:01;96821.53;;;9.44;100.00
4598;BME280;62772;48.646;8.906;2023-10-09T03:53:12;96814.63;;;9.05;100.00
4598;BME280;62772;48.646;8.906;2023-10-09T03:58:13;96818.22;;;8.95;100.00
4598;BME280;62772;48.646;8.906;2023-10-09T04:03:15;96809.84;;;9.40;100.00
4598;BME280;62772;48.646;8.906;2023-10-09T04:08:15;96810.88;;;9.44;100.00
4598;BME280;62772;48.646;8.906;2023-10-09T04:13:31;96807.75;;;9.56;100.00
4598;BME280;62772;48.646;8.906;2023-10-09T04:18:35;96813.56;;;9.77;100.00
4598;BME280;62772;48.646;8.906;2023-10-09T04:23:38;96809.63;;;9.55;100.00
4598;BME280;62772;48.646;8.906;2023-10-09T04:28:57;96812.97;;;8.90;100.00
4598;BME280;62772;48.646;8.906;2023-10-09T04:33:58;96809.75;;;8.69;100.00
4598;BME280;62772;48.646;8.906;2023-10-09T04:39:17;96808.63;;;8.75;100.00
4598;BME280;62772;48.646;8.906;2023-10-09T04:44:26;96807.84;;;8.94;100.00
4598;BME280;62772;48.646;8.906;2023-10-09T04:49:39;96808.66;;;9.13;100.00
4598;BME280;62772;48.646;8.906;2023-10-09T04:54:48;96814.63;;;9.43;100.00
4598;BME280;62772;48.646;8.906;2023-10-09T05:00:14;96810.78;;;9.49;100.00
4598;BME280;62772;48.646;8.906;2023-10-09T05:05:28;96822.59;;;9.05;100.00
4598;BME280;62772;48.646;8.906;2023-10-09T05:10:50;96818.78;;;9.11;100.00
4598;BME280;62772;48.646;8.906;2023-10-09T05:16:00;96828.19;;;9.47;100.00
4598;BME280;62772;48.646;8.906;2023-10-09T05:21:03;96832.28;;;9.58;100.00
4598;BME280;62772;48.646;8.906;2023-10-09T05:26:13;96835.94;;;9.43;100.00
4598;BME280;62772;48.646;8.906;2023-10-09T05:31:31;96834.66;;;9.02;100.00
4598;BME280;62772;48.646;8.906;2023-10-09T05:36:50;96830.09;;;9.60;100.00
4598;BME280;62772;48.646;8.906;2023-10-09T05:41:51;96831.06;;;9.12;100.00
4598;BME280;62772;48.646;8.906;2023-10-09T05:46:51;96834.22;;;9.33;100.00
4598;BME280;62772;48.646;8.906;2023-10-09T05:52:24;96836.03;;;9.38;100.00
4598;BME280;62772;48.646;8.906;2023-10-09T05:57:54;96833.91;;;9.54;100.00
4598;BME280;62772;48.646;8.906;2023-10-09T06:03:13;96848.84;;;9.36;100.00
4598;BME280;62772;48.646;8.906;2023-10-09T06:08:20;96842.38;;;9.42;100.00
4598;BME280;62772;48.646;8.906;2023-10-09T06:13:27;96851.41;;;9.79;100.00
4598;BME280;62772;48.646;8.906;2023-10-09T06:18:37;96860.28;;;9.55;100.00
4598;BME280;62772;48.646;8.906;2023-10-09T06:23:42;96855.69;;;9.94;100.00
4598;BME280;62772;48.646;8.906;2023-10-09T06:29:11;96859.19;;;9.94;100.00
4598;BME280;62772;48.646;8.906;2023-10-09T06:34:14;96859.41;;;10.12;100.00
4598;BME280;62772;48.646;8.906;2023-10-09T06:39:15;96844.97;;;10.13;100.00
4598;BME280;62772;48.646;8.906;2023-10-09T06:44:34;96855.69;;;10.27;100.00
4598;BME280;62772;48.646;8.906;2023-10-09T06:49:53;96848.69;;;10.31;100.00
4598;BME280;62772;48.646;8.906;2023-10-09T06:55:36;96848.81;;;10.53;100.00
4598;BME280;62772;48.646;8.906;2023-10-09T07:00:49;96869.00;;;10.74;100.00
4598;BME280;62772;48.646;8.906;2023-10-09T07:06:09;96878.31;;;10.90;100.00
4598;BME280;62772;48.646;8.906;2023-10-09T07:11:33;96885.03;;;11.01;100.00
4598;BME280;62772;48.646;8.906;2023-10-09T07:16:40;96887.59;;;10.93;100.00
4598;BME280;62772;48.646;8.906;2023-10-09T07:21:57;96886.34;;;11.04;100.00
4598;BME280;62772;48.646;8.906;2023-10-09T07:27:05;96884.31;;;11.37;100.00
4598;BME280;62772;48.646;8.906;2023-10-09T07:32:10;96880.06;;;11.22;100.00
4598;BME280;62772;48.646;8.906;2023-10-09T07:42:24;96868.91;;;11.43;100.00
4598;BME280;62772;48.646;8.906;2023-10-09T07:47:34;96862.44;;;11.58;100.00
4598;BME280;62772;48.646;8.906;2023-10-09T07:53:01;96875.63;;;11.77;100.00
4598;BME280;62772;48.646;8.906;2023-10-09T07:58:15;96878.81;;;11.79;100.00
4598;BME280;62772;48.646;8.906;2023-10-09T08:03:16;96874.72;;;11.82;100.00
4598;BME280;62772;48.646;8.906;2023-10-09T08:08:24;96885.22;;;12.14;100.00
4598;BME280;62772;48.646;8.906;2023-10-09T08:13:30;96879.88;;;12.14;100.00
4598;BME280;62772;48.646;8.906;2023-10-09T08:19:03;96878.13;;;12.41;100.00
4598;BME280;62772;48.646;8.906;2023-10-09T08:24:20;96882.06;;;12.75;100.00
4598;BME280;62772;48.646;8.906;2023-10-09T08:29:41;96876.91;;;12.87;100.00
4598;BME280;62772;48.646;8.906;2023-10-09T08:34:47;96889.25;;;12.97;100.00
4598;BME280;62772;48.646;8.906;2023-10-09T08:39:53;96884.53;;;13.12;100.00
4598;BME280;62772;48.646;8.906;2023-10-09T08:44:55;96891.03;;;13.28;100.00
4598;BME280;62772;48.646;8.906;2023-10-09T08:49:59;96896.94;;;13.56;100.00
4598;BME280;62772;48.646;8.906;2023-10-09T08:55:00;96893.47;;;13.82;100.00
4598;BME280;62772;48.646;8.906;2023-10-09T09:00:01;96906.75;;;13.96;100.00
4598;BME280;62772;48.646;8.906;2023-10-09T09:05:16;96906.75;;;13.78;100.00
4598;BME280;62772;48.646;8.906;2023-10-09T09:10:17;96909.44;;;13.78;100.00
4598;BME280;62772;48.646;8.906;2023-10-09T09:15:31;96916.84;;;13.99;100.00
4598;BME280;62772;48.646;8.906;2023-10-09T09:20:32;96922.00;;;14.39;100.00
4598;BME280;62772;48.646;8.906;2023-10-09T09:25:46;96925.16;;;14.59;100.00
4598;BME280;62772;48.646;8.906;2023-10-09T09:31:08;96915.72;;;14.91;100.00
4598;BME280;62772;48.646;8.906;2023-10-09T09:36:15;96919.69;;;14.94;100.00
4598;BME280;62772;48.646;8.906;2023-10-09T09:41:17;96922.47;;;15.06;100.00
4598;BME280;62772;48.646;8.906;2023-10-09T09:46:28;96925.19;;;14.97;100.00
4598;BME280;62772;48.646;8.906;2023-10-09T09:51:34;96924.88;;;14.99;100.00
4598;BME280;62772;48.646;8.906;2023-10-09T09:56:36;96924.72;;;15.25;100.00
4598;BME280;62772;48.646;8.906;2023-10-09T10:01:39;96925.66;;;15.59;100.00
4598;BME280;62772;48.646;8.906;2023-10-09T10:06:43;96924.69;;;16.06;100.00
4598;BME280;62772;48.646;8.906;2023-10-09T10:11:46;96924.56;;;16.02;100.00
4598;BME280;62772;48.646;8.906;2023-10-09T10:17:05;96915.34;;;16.24;100.00
4598;BME280;62772;48.646;8.906;2023-10-09T10:22:23;96905.25;;;16.33;100.00
4598;BME280;62772;48.646;8.906;2023-10-09T10:27:27;96911.16;;;16.60;100.00
4598;BME280;62772;48.646;8.906;2023-10-09T10:37:52;96908.19;;;17.11;100.00
4598;BME280;62772;48.646;8.906;2023-10-09T10:43:00;96912.22;;;17.05;100.00
4598;BME280;62772;48.646;8.906;2023-10-09T10:48:14;96908.97;;;16.99;100.00
4598;BME280;62772;48.646;8.906;2023-10-09T10:53:23;96918.19;;;17.48;100.00
4598;BME280;62772;48.646;8.906;2023-10-09T10:58:27;96909.16;;;17.56;100.00
4598;BME280;62772;48.646;8.906;2023-10-09T11:03:47;96914.06;;;17.79;100.00
4598;BME280;62772;48.646;8.906;2023-10-09T11:08:54;96909.47;;;17.67;100.00
4598;BME280;62772;48.646;8.906;2023-10-09T11:14:07;96914.97;;;17.70;100.00
4598;BME280;62772;48.646;8.906;2023-10-09T11:19:12;96915.78;;;17.71;100.00
4598;BME280;62772;48.646;8.906;2023-10-09T11:24:28;96912.94;;;17.92;100.00
4598;BME280;62772;48.646;8.906;2023-10-09T11:29:34;96909.38;;;18.04;100.00
4598;BME280;62772;48.646;8.906;2023-10-09T11:34:46;96910.97;;;18.05;100.00
4598;BME280;62772;48.646;8.906;2023-10-09T11:39:52;96909.59;;;18.11;100.00
4598;BME280;62772;48.646;8.906;2023-10-09T11:44:53;96904.88;;;18.08;100.00
4598;BME280;62772;48.646;8.906;2023-10-09T11:49:57;96907.81;;;18.03;100.00
4598;BME280;62772;48.646;8.906;2023-10-09T11:55:02;96896.75;;;18.08;100.00
4598;BME280;62772;48.646;8.906;2023-10-09T12:00:04;96886.47;;;17.85;100.00
4598;BME280;62772;48.646;8.906;2023-10-09T12:05:11;96876.19;;;18.03;100.00
4598;BME280;62772;48.646;8.906;2023-10-09T12:10:17;96871.38;;;17.84;100.00
4598;BME280;62772;48.646;8.906;2023-10-09T12:15:24;96873.75;;;17.86;100.00
4598;BME280;62772;48.646;8.906;2023-10-09T12:20:25;96863.94;;;17.93;100.00
4598;BME280;62772;48.646;8.906;2023-10-09T12:25:33;96848.50;;;18.22;100.00
4598;BME280;62772;48.646;8.906;2023-10-09T12:30:34;96830.56;;;18.62;94.69
4598;BME280;62772;48.646;8.906;2023-10-09T12:35:40;96821.06;;;18.84;89.50
4598;BME280;62772;48.646;8.906;2023-10-09T12:40:41;96816.47;;;19.04;75.94
4598;BME280;62772;48.646;8.906;2023-10-09T12:45:50;96812.13;;;18.99;76.90
4598;BME280;62772;48.646;8.906;2023-10-09T12:50:51;96811.75;;;19.17;71.02
4598;BME280;62772;48.646;8.906;2023-10-09T12:55:54;96804.00;;;19.93;75.85
4598;BME280;62772;48.646;8.906;2023-10-09T13:00:56;96809.25;;;20.06;70.14
4598;BME280;62772;48.646;8.906;2023-10-09T13:06:09;96809.06;;;19.95;66.02
4598;BME280;62772;48.646;8.906;2023-10-09T13:11:12;96809.75;;;20.58;54.03
4598;BME280;62772;48.646;8.906;2023-10-09T13:16:18;96819.78;;;20.54;56.29
4598;BME280;62772;48.646;8.906;2023-10-09T13:21:28;96818.66;;;20.78;48.79
4598;BME280;62772;48.646;8.906;2023-10-09T13:26:32;96822.41;;;20.50;50.35
4598;BME280;62772;48.646;8.906;2023-10-09T13:31:36;96819.94;;;20.88;49.69
4598;BME280;62772;48.646;8.906;2023-10-09T13:36:38;96823.66;;;21.02;45.84
4598;BME280;62772;48.646;8.906;2023-10-09T13:41:38;96826.00;;;21.04;45.66
4598;BME280;62772;48.646;8.906;2023-10-09T13:46:41;96829.72;;;20.69;49.10
4598;BME280;62772;48.646;8.906;2023-10-09T13:51:42;96822.31;;;20.66;51.33
4598;BME280;62772;48.646;8.906;2023-10-09T13:56:47;96808.66;;;21.12;47.44
4598;BME280;62772;48.646;8.906;2023-10-09T14:01:49;96803.88;;;21.02;47.76
4598;BME280;62772;48.646;8.906;2023-10-09T14:06:50;96801.31;;;20.86;50.49
4598;BME280;62772;48.646;8.906;2023-10-09T14:12:01;96793.03;;;20.79;48.57
4598;BME280;62772;48.646;8.906;2023-10-09T14:17:11;96788.47;;;20.60;54.70
4598;BME280;62772;48.646;8.906;2023-10-09T14:22:12;96780.47;;;20.94;50.26
4598;BME280;62772;48.646;8.906;2023-10-09T14:27:16;96767.88;;;20.82;48.85
4598;BME280;62772;48.646;8.906;2023-10-09T14:32:19;96760.44;;;21.02;48.04
4598;BME280;62772;48.646;8.906;2023-10-09T14:37:20;96760.06;;;21.04;50.62
4598;BME280;62772;48.646;8.906;2023-10-09T14:42:20;96760.75;;;20.97;52.05
4598;BME280;62772;48.646;8.906;2023-10-09T14:47:23;96765.84;;;21.02;50.53
4598;BME280;62772;48.646;8.906;2023-10-09T14:52:23;96777.41;;;20.95;54.93
4598;BME280;62772;48.646;8.906;2023-10-09T14:57:24;96774.69;;;20.95;54.54
4598;BME280;62772;48.646;8.906;2023-10-09T15:02:25;96777.66;;;21.13;51.34
4598;BME280;62772;48.646;8.906;2023-10-09T15:07:25;96766.63;;;21.02;54.15
4598;BME280;62772;48.646;8.906;2023-10-09T15:12:28;96767.78;;;21.01;57.28
4598;BME280;62772;48.646;8.906;2023-10-09T15:17:29;96782.88;;;20.99;54.31
4598;BME280;62772;48.646;8.906;2023-10-09T15:22:30;96785.84;;;20.90;54.85
4598;BME280;62772;48.646;8.906;2023-10-09T15:27:36;96775.22;;;20.78;56.34
4598;BME280;62772;48.646;8.906;2023-10-09T15:32:40;96765.03;;;20.71;62.06
4598;BME280;62772;48.646;8.906;2023-10-09T15:37:42;96760.34;;;20.68;52.83
4598;BME280;62772;48.646;8.906;2023-10-09T15:42:45;96764.19;;;20.44;59.45
4598;BME280;62772;48.646;8.906;2023-10-09T15:47:50;96762.41;;;20.28;60.09
4598;BME280;62772;48.646;8.906;2023-10-09T15:52:54;96770.47;;;20.02;61.73
4598;BME280;62772;48.646;8.906;2023-10-09T15:57:55;96769.03;;;20.08;66.49
4598;BME280;62772;48.646;8.906;2023-10-09T16:02:56;96777.00;;;19.78;64.47
4598;BME280;62772;48.646;8.906;2023-10-09T16:07:57;96770.56;;;19.66;71.54
4598;BME280;62772;48.646;8.906;2023-10-09T16:12:58;96783.81;;;19.32;71.81
4598;BME280;62772;48.646;8.906;2023-10-09T16:17:58;96781.38;;;19.27;77.49
4598;BME280;62772;48.646;8.906;2023-10-09T16:22:59;96785.59;;;19.25;80.98
4598;BME280;62772;48.646;8.906;2023-10-09T16:28:04;96788.69;;;19.07;81.62
4598;BME280;62772;48.646;8.906;2023-10-09T16:33:04;96791.63;;;18.82;86.63
4598;BME280;62772;48.646;8.906;2023-10-09T16:38:05;96776.34;;;18.90;89.79
4598;BME280;62772;48.646;8.906;2023-10-09T16:43:08;96773.75;;;19.13;93.17
4598;BME280;62772;48.646;8.906;2023-10-09T16:48:13;96780.25;;;18.77;91.61
4598;BME280;62772;48.646;8.906;2023-10-09T16:53:15;96780.03;;;18.18;89.07
4598;BME280;62772;48.646;8.906;2023-10-09T16:58:17;96783.53;;;18.19;94.58
4598;BME280;62772;48.646;8.906;2023-10-09T17:03:17;96785.75;;;18.01;97.11
4598;BME280;62772;48.646;8.906;2023-10-09T17:08:18;96779.22;;;18.02;99.18
4598;BME280;62772;48.646;8.906;2023-10-09T17:13:19;96773.06;;;17.45;100.00
4598;BME280;62772;48.646;8.906;2023-10-09T17:18:24;96786.59;;;17.32;98.44
4598;BME280;62772;48.646;8.906;2023-10-09T17:23:28;96784.88;;;16.62;100.00
4598;BME280;62772;48.646;8.906;2023-10-09T17:28:29;96784.97;;;16.41;100.00
4598;BME280;62772;48.646;8.906;2023-10-09T17:33:31;96792.91;;;16.01;100.00
4598;BME280;62772;48.646;8.906;2023-10-09T17:38:32;96784.94;;;15.50;100.00
4598;BME280;62772;48.646;8.906;2023-10-09T17:43:33;96791.19;;;15.20;100.00
4598;BME280;62772;48.646;8.906;2023-10-09T17:48:35;96794.25;;;15.52;100.00
4598;BME280;62772;48.646;8.906;2023-10-09T17:53:36;96804.97;;;15.19;100.00
4598;BME280;62772;48.646;8.906;2023-10-09T17:58:38;96815.13;;;14.92;100.00
4598;BME280;62772;48.646;8.906;2023-10-09T18:03:44;96819.09;;;15.58;100.00
4598;BME280;62772;48.646;8.906;2023-10-09T18:08:45;96818.88;;;15.42;100.00
4598;BME280;62772;48.646;8.906;2023-10-09T18:13:48;96826.63;;;15.86;100.00
4598;BME280;62772;48.646;8.906;2023-10-09T18:18:48;96821.50;;;15.09;100.00
4598;BME280;62772;48.646;8.906;2023-10-09T18:23:53;96822.66;;;14.99;100.00
4598;BME280;62772;48.646;8.906;2023-10-09T18:28:56;96810.00;;;14.99;100.00
4598;BME280;62772;48.646;8.906;2023-10-09T18:33:58;96807.69;;;14.50;100.00
4598;BME280;62772;48.646;8.906;2023-10-09T18:38:58;96803.84;;;14.69;100.00
4598;BME280;62772;48.646;8.906;2023-10-09T18:43:59;96809.31;;;14.43;100.00
4598;BME280;62772;48.646;8.906;2023-10-09T18:49:01;96799.25;;;14.99;100.00
4598;BME280;62772;48.646;8.906;2023-10-09T18:54:02;96791.81;;;14.37;100.00
4598;BME280;62772;48.646;8.906;2023-10-09T18:59:07;96779.06;;;14.16;100.00
4598;BME280;62772;48.646;8.906;2023-10-09T19:04:08;96782.66;;;14.29;100.00
4598;BME280;62772;48.646;8.906;2023-10-09T19:09:09;96796.00;;;14.85;100.00
4598;BME280;62772;48.646;8.906;2023-10-09T19:14:09;96791.47;;;15.07;100.00
4598;BME280;62772;48.646;8.906;2023-10-09T19:19:11;96787.25;;;14.67;100.00
4598;BME280;62772;48.646;8.906;2023-10-09T19:24:12;96794.22;;;14.59;100.00
4598;BME280;62772;48.646;8.906;2023-10-09T19:29:13;96797.97;;;14.76;100.00
4598;BME280;62772;48.646;8.906;2023-10-09T19:34:13;96793.22;;;15.02;100.00
4598;BME280;62772;48.646;8.906;2023-10-09T19:39:14;96791.88;;;14.49;100.00
4598;BME280;62772;48.646;8.906;2023-10-09T19:44:18;96796.91;;;14.21;100.00
4598;BME280;62772;48.646;8.906;2023-10-09T19:49:18;96800.69;;;14.20;100.00
4598;BME280;62772;48.646;8.906;2023-10-09T19:54:19;96811.34;;;13.99;100.00
4598;BME280;62772;48.646;8.906;2023-10-09T19:59:21;96811.28;;;14.63;100.00
4598;BME280;62772;48.646;8.906;2023-10-09T20:04:22;96815.34;;;14.78;100.00
4598;BME280;62772;48.646;8.906;2023-10-09T20:09:25;96811.13;;;14.21;100.00
4598;BME280;62772;48.646;8.906;2023-10-09T20:14:25;96818.75;;;14.49;100.00
4598;BME280;62772;48.646;8.906;2023-10-09T20:19:26;96822.91;;;14.46;100.00
4598;BME280;62772;48.646;8.906;2023-10-09T20:24:27;96818.56;;;14.15;100.00
4598;BME280;62772;48.646;8.906;2023-10-09T20:29:32;96823.03;;;13.85;100.00
4598;BME280;62772;48.646;8.906;2023-10-09T20:34:35;96830.66;;;13.74;100.00
4598;BME280;62772;48.646;8.906;2023-10-09T20:39:35;96827.78;;;13.27;100.00
4598;BME280;62772;48.646;8.906;2023-10-09T20:44:40;96837.28;;;13.33;100.00
4598;BME280;62772;48.646;8.906;2023-10-09T20:49:41;96830.81;;;13.43;100.00
4598;BME280;62772;48.646;8.906;2023-10-09T20:54:43;96835.72;;;13.58;100.00
4598;BME280;62772;48.646;8.906;2023-10-09T20:59:45;96839.44;;;13.14;100.00
4598;BME280;62772;48.646;8.906;2023-10-09T21:04:46;96847.38;;;13.45;100.00
4598;BME280;62772;48.646;8.906;2023-10-09T21:09:47;96851.16;;;13.88;100.00
4598;BME280;62772;48.646;8.906;2023-10-09T21:14:48;96854.16;;;14.04;100.00
4598;BME280;62772;48.646;8.906;2023-10-09T21:19:48;96857.69;;;12.94;100.00
4598;BME280;62772;48.646;8.906;2023-10-09T21:24:49;96853.31;;;13.24;100.00
4598;BME280;62772;48.646;8.906;2023-10-09T21:29:50;96854.06;;;12.50;100.00
4598;BME280;62772;48.646;8.906;2023-10-09T21:34:51;96852.50;;;12.49;100.00
4598;BME280;62772;48.646;8.906;2023-10-09T21:39:51;96849.69;;;12.23;100.00
4598;BME280;62772;48.646;8.906;2023-10-09T21:44:52;96861.91;;;12.38;100.00
4598;BME280;62772;48.646;8.906;2023-10-09T21:49:52;96857.00;;;12.80;100.00
4598;BME280;62772;48.646;8.906;2023-10-09T21:54:54;96863.56;;;13.05;100.00
4598;BME280;62772;48.646;8.906;2023-10-09T21:59:55;96863.53;;;12.56;100.00
4598;BME280;62772;48.646;8.906;2023-10-09T22:04:56;96869.44;;;12.36;100.00
4598;BME280;62772;48.646;8.906;2023-10-09T22:09:56;96861.69;;;12.34;100.00
4598;BME280;62772;48.646;8.906;2023-10-09T22:15:00;96856.22;;;12.08;100.00
4598;BME280;62772;48.646;8.906;2023-10-09T22:20:01;96866.44;;;12.06;100.00
4598;BME280;62772;48.646;8.906;2023-10-09T22:25:04;96866.97;;;12.48;100.00
4598;BME280;62772;48.646;8.906;2023-10-09T22:30:06;96866.59;;;12.72;100.00
4598;BME280;62772;48.646;8.906;2023-10-09T22:35:13;96877.00;;;12.74;100.00
4598;BME280;62772;48.646;8.906;2023-10-09T22:40:16;96875.31;;;12.86;100.00
4598;BME280;62772;48.646;8.906;2023-10-09T22:45:42;96873.63;;;12.99;100.00
4598;BME280;62772;48.646;8.906;2023-10-09T22:50:44;96874.31;;;12.65;100.00
4598;BME280;62772;48.646;8.906;2023-10-09T22:55:45;96877.03;;;12.42;100.00
4598;BME280;62772;48.646;8.906;2023-10-09T23:00:58;96877.50;;;11.90;100.00
4598;BME280;62772;48.646;8.906;2023-10-09T23:06:02;96879.09;;;12.45;100.00
4598;BME280;62772;48.646;8.906;2023-10-09T23:11:13;96875.47;;;12.41;100.00
4598;BME280;62772;48.646;8.906;2023-10-09T23:16:14;96885.38;;;12.41;100.00
4598;BME280;62772;48.646;8.906;2023-10-09T23:21:14;96871.50;;;12.39;100.00
4598;BME280;62772;48.646;8.906;2023-10-09T23:26:22;96871.28;;;12.04;100.00
4598;BME280;62772;48.646;8.906;2023-10-09T23:31:26;96872.66;;;11.78;100.00
4598;BME280;62772;48.646;8.906;2023-10-09T23:36:35;96872.59;;;12.06;100.00
4598;BME280;62772;48.646;8.906;2023-10-09T23:41:55;96866.97;;;12.16;100.00
4598;BME280;62772;48.646;8.906;2023-10-09T23:47:03;96862.72;;;11.56;100.00
4598;BME280;62772;48.646;8.906;2023-10-09T23:52:12;96864.97;;;11.40;100.00
4598;BME280;62772;48.646;8.906;2023-10-09T23:57:15;96860.31;;;11.46;100.00
